createdAt,value
2019-03-15T00:00:43.848Z,46.00
2019-03-15T00:05:49.676Z,45.90
2019-03-15T00:10:55.521Z,45.80
2019-03-15T00:16:02.249Z,45.80
2019-03-15T00:21:08.239Z,45.80
2019-03-15T00:26:14.065Z,45.90
2019-03-15T00:31:19.995Z,46.20
2019-03-15T00:36:27.185Z,46.20
2019-03-15T00:41:32.765Z,45.60
2019-03-15T00:46:38.673Z,45.00
2019-03-15T00:51:44.565Z,45.00
2019-03-15T00:56:50.335Z,45.60
2019-03-15T01:01:56.025Z,44.70
2019-03-15T01:07:01.796Z,45.10
2019-03-15T01:12:09.434Z,45.20
2019-03-15T01:17:15.106Z,45.10
2019-03-15T01:22:21.077Z,45.10
2019-03-15T01:27:27.323Z,45.20
2019-03-15T01:32:33.135Z,45.10
2019-03-15T01:37:38.997Z,45.20
2019-03-15T01:42:44.755Z,45.00
2019-03-15T01:47:50.694Z,45.00
2019-03-15T01:52:56.424Z,45.00
2019-03-15T01:58:02.104Z,45.00
2019-03-15T02:03:07.725Z,45.00
2019-03-15T02:08:13.455Z,44.90
2019-03-15T02:13:19.410Z,44.80
2019-03-15T02:18:25.215Z,44.80
2019-03-15T02:23:31.386Z,44.70
2019-03-15T02:28:38.707Z,44.70
2019-03-15T02:33:44.297Z,44.70
2019-03-15T02:38:49.846Z,44.60
2019-03-15T02:43:55.170Z,44.70
2019-03-15T02:49:01.117Z,44.60
2019-03-15T02:54:06.766Z,44.60
2019-03-15T02:59:12.477Z,44.60
2019-03-15T03:04:18.316Z,44.50
2019-03-15T03:09:24.155Z,44.60
2019-03-15T03:14:30.980Z,44.60
2019-03-15T03:19:36.936Z,44.60
2019-03-15T03:24:42.705Z,44.60
2019-03-15T03:29:49.056Z,44.60
2019-03-15T03:34:54.866Z,45.20
2019-03-15T03:40:01.328Z,44.60
2019-03-15T03:45:07.996Z,44.60
2019-03-15T03:50:14.195Z,44.50
2019-03-15T03:55:19.945Z,44.50
2019-03-15T04:00:25.705Z,44.50
2019-03-15T04:05:31.305Z,44.60
2019-03-15T04:10:37.106Z,44.50
2019-03-15T04:15:42.966Z,44.40
2019-03-15T04:20:48.536Z,44.40
2019-03-15T04:25:55.485Z,44.40
2019-03-15T04:31:01.248Z,44.40
2019-03-15T04:36:07.096Z,44.40
2019-03-15T04:41:12.926Z,44.30
2019-03-15T04:46:18.576Z,44.30
2019-03-15T04:51:24.786Z,44.30
2019-03-15T04:56:30.586Z,44.20
2019-03-15T05:01:36.318Z,44.20
2019-03-15T05:06:42.226Z,44.90
2019-03-15T05:11:48.046Z,44.20
2019-03-15T05:16:53.788Z,44.20
2019-03-15T05:21:59.032Z,44.30
2019-03-15T05:27:05.826Z,44.20
2019-03-15T05:32:12.089Z,44.20
2019-03-15T05:37:18.396Z,44.20
2019-03-15T05:42:24.075Z,44.20
2019-03-15T05:47:29.795Z,44.20
2019-03-15T05:52:35.921Z,44.30
2019-03-15T05:57:42.593Z,44.20
2019-03-15T06:02:48.526Z,44.20
2019-03-15T06:07:55.228Z,44.20
2019-03-15T06:13:01.601Z,44.30
2019-03-15T06:18:07.453Z,44.30
2019-03-15T06:23:13.126Z,44.30
2019-03-15T06:28:19.026Z,44.30
2019-03-15T06:33:24.636Z,44.30
2019-03-15T06:38:33.316Z,44.40
2019-03-15T06:43:37.806Z,44.60
2019-03-15T06:48:44.994Z,44.60
2019-03-15T06:53:50.727Z,44.60
2019-03-15T06:58:56.586Z,44.60
2019-03-15T07:04:02.506Z,44.80
2019-03-15T07:09:08.926Z,44.90
2019-03-15T07:14:15.967Z,44.60
2019-03-15T07:19:27.583Z,44.70
2019-03-15T07:24:29.606Z,44.70
2019-03-15T07:29:35.651Z,44.80
2019-03-15T07:34:41.632Z,44.70
2019-03-15T07:39:47.646Z,44.70
2019-03-15T07:44:53.556Z,44.70
2019-03-15T07:49:59.196Z,45.00
2019-03-15T07:55:05.127Z,45.80
2019-03-15T08:00:11.565Z,45.10
2019-03-15T08:05:17.316Z,45.00
2019-03-15T08:10:23.348Z,45.40
2019-03-15T08:15:29.406Z,45.40
2019-03-15T08:20:35.216Z,45.50
2019-03-15T08:25:41.318Z,45.90
2019-03-15T08:30:47.526Z,45.50
2019-03-15T08:35:53.435Z,45.50
2019-03-15T08:41:00.166Z,44.80
2019-03-15T08:46:06.086Z,44.80
2019-03-15T08:51:12.334Z,44.90
2019-03-15T08:56:17.976Z,45.00
2019-03-15T09:01:24.064Z,45.60
2019-03-15T09:06:29.906Z,45.10
2019-03-15T09:11:35.906Z,45.10
2019-03-15T09:16:41.317Z,45.20
2019-03-15T09:21:47.036Z,45.30
2019-03-15T09:26:52.877Z,45.10
2019-03-15T09:32:06.200Z,45.90
2019-03-15T09:37:06.307Z,45.50
2019-03-15T09:42:12.037Z,45.30
2019-03-15T09:47:17.756Z,45.30
2019-03-15T09:52:23.596Z,45.50
2019-03-15T09:57:29.247Z,46.30
2019-03-15T10:02:35.122Z,45.90
2019-03-15T10:07:43.441Z,45.30
2019-03-15T10:12:47.954Z,46.40
2019-03-15T10:17:53.415Z,46.80
2019-03-15T10:23:05.895Z,46.90
2019-03-15T10:28:07.303Z,45.80
2019-03-15T10:33:13.365Z,46.20
2019-03-15T10:38:19.478Z,47.10
2019-03-15T10:43:25.416Z,46.50
2019-03-15T10:48:31.580Z,46.50
2019-03-15T10:53:37.186Z,46.20
2019-03-15T10:58:42.976Z,45.60
2019-03-15T11:03:48.715Z,45.60
2019-03-15T11:08:54.546Z,45.80
2019-03-15T11:14:00.188Z,46.50
2019-03-15T11:19:05.777Z,45.90
2019-03-15T11:24:11.899Z,46.00
2019-03-15T11:29:17.703Z,46.00
2019-03-15T11:34:23.526Z,45.80
2019-03-15T11:39:29.346Z,45.60
2019-03-15T11:44:35.226Z,45.70
2019-03-15T11:49:40.967Z,45.70
2019-03-15T11:54:49.677Z,45.50
2019-03-15T11:59:54.176Z,45.40
2019-03-15T12:04:59.859Z,45.50
2019-03-15T12:10:06.426Z,45.40
2019-03-15T12:15:12.576Z,45.30
2019-03-15T12:20:18.465Z,45.30
2019-03-15T12:25:24.750Z,45.30
2019-03-15T12:30:30.452Z,45.90
2019-03-15T12:35:36.036Z,45.30
2019-03-15T12:40:41.758Z,45.20
2019-03-15T12:45:47.755Z,45.10
2019-03-15T12:50:53.597Z,45.20
2019-03-15T12:55:59.378Z,45.10
2019-03-15T13:01:05.535Z,45.10
2019-03-15T13:06:11.466Z,45.20
2019-03-15T13:11:17.405Z,45.10
2019-03-15T13:16:24.245Z,45.00
2019-03-15T13:21:30.096Z,44.80
2019-03-15T13:26:35.926Z,44.60
2019-03-15T13:31:41.734Z,44.70
2019-03-15T13:36:47.495Z,44.70
2019-03-15T13:41:53.416Z,44.60
2019-03-15T13:46:59.456Z,44.60
2019-03-15T13:52:05.159Z,44.50
2019-03-15T13:57:20.585Z,44.60
2019-03-15T14:02:18.196Z,44.60
2019-03-15T14:07:24.137Z,44.60
2019-03-15T14:12:29.986Z,44.40
2019-03-15T14:17:35.790Z,45.20
2019-03-15T14:22:41.926Z,44.50
2019-03-15T14:27:48.019Z,44.50
2019-03-15T14:32:53.687Z,44.40
2019-03-15T14:37:59.662Z,44.40
2019-03-15T14:43:05.724Z,44.40
2019-03-15T14:48:11.855Z,44.50
2019-03-15T14:53:19.776Z,44.40
2019-03-15T14:58:26.986Z,44.50
2019-03-15T15:03:32.915Z,44.40
2019-03-15T15:08:38.807Z,44.50
2019-03-15T15:13:44.667Z,44.40
2019-03-15T15:18:50.617Z,44.40
2019-03-15T15:23:56.566Z,44.60
2019-03-15T15:29:01.967Z,44.40
2019-03-15T15:34:08.936Z,44.60
2019-03-15T15:39:14.675Z,44.40
2019-03-15T15:44:20.588Z,44.50
2019-03-15T15:49:26.526Z,44.50
2019-03-15T15:54:32.377Z,44.50
2019-03-15T15:59:38.386Z,44.80
2019-03-15T16:04:44.156Z,44.70
2019-03-15T16:09:49.836Z,44.70
2019-03-15T16:14:55.596Z,45.10
2019-03-15T16:20:01.571Z,44.80
2019-03-15T16:25:07.459Z,45.20
2019-03-15T16:30:14.277Z,45.60
2019-03-15T16:35:20.359Z,45.60
2019-03-15T16:40:26.256Z,46.00
2019-03-15T16:45:32.939Z,46.50
2019-03-15T16:50:38.249Z,46.40
2019-03-15T16:55:44.095Z,46.50
2019-03-15T17:00:49.980Z,46.70
2019-03-15T17:05:56.004Z,46.80
2019-03-15T17:11:02.277Z,46.50
2019-03-15T17:16:09.479Z,46.50
2019-03-15T17:21:15.254Z,45.70
2019-03-15T17:26:21.526Z,45.80
2019-03-15T17:31:27.326Z,45.60
2019-03-15T17:36:33.406Z,46.10
2019-03-15T17:41:39.335Z,45.50
2019-03-15T17:46:45.215Z,45.60
2019-03-15T17:51:51.129Z,45.50
2019-03-15T17:56:58.695Z,46.10
2019-03-15T18:02:04.535Z,45.50
2019-03-15T18:07:10.425Z,45.50
2019-03-15T18:12:16.255Z,45.10
2019-03-15T18:17:22.019Z,45.10
2019-03-15T18:22:28.135Z,45.10
2019-03-15T18:27:33.916Z,45.40
2019-03-15T18:32:39.587Z,45.50
2019-03-15T18:37:45.446Z,45.50
2019-03-15T18:42:51.196Z,45.40
2019-03-15T18:47:57.143Z,45.40
2019-03-15T18:53:03.245Z,45.20
2019-03-15T18:58:09.016Z,45.10
2019-03-15T19:03:14.627Z,45.20
2019-03-15T19:08:20.845Z,45.20
2019-03-15T19:13:26.335Z,45.20
2019-03-15T19:18:32.085Z,45.00
2019-03-15T19:23:38.085Z,45.10
2019-03-15T19:28:43.850Z,45.10
2019-03-15T19:33:50.020Z,45.10
2019-03-15T19:38:55.614Z,45.10
2019-03-15T19:44:01.498Z,45.10
2019-03-15T19:49:07.116Z,45.00
2019-03-15T19:54:13.095Z,45.10
2019-03-15T19:59:19.347Z,45.00
2019-03-15T20:04:25.257Z,45.10
2019-03-15T20:09:31.155Z,44.90
2019-03-15T20:19:52.015Z,45.10
2019-03-15T20:24:57.775Z,45.10
2019-03-15T20:30:03.115Z,45.10
2019-03-15T20:35:09.438Z,45.10
2019-03-15T20:40:15.027Z,45.00
2019-03-15T20:45:20.706Z,45.10
2019-03-15T20:50:26.866Z,45.10
2019-03-15T20:55:32.859Z,45.10
2019-03-15T21:00:38.790Z,45.10
2019-03-15T21:05:44.638Z,45.10
2019-03-15T21:10:51.717Z,45.10
2019-03-15T21:15:57.293Z,45.10
2019-03-15T21:21:03.105Z,45.10
2019-03-15T21:26:08.991Z,45.20
2019-03-15T21:31:14.797Z,45.10
2019-03-15T21:36:20.316Z,45.10
2019-03-15T21:41:26.016Z,45.10
2019-03-15T21:46:36.060Z,45.20
2019-03-15T21:51:42.620Z,45.30
2019-03-15T21:56:48.470Z,45.30
2019-03-15T22:01:54.470Z,45.50
2019-03-15T22:07:00.300Z,45.60
2019-03-15T22:12:05.950Z,45.60
2019-03-15T22:17:12.090Z,45.60
2019-03-15T22:22:20.079Z,45.60
2019-03-15T22:27:26.801Z,45.40
2019-03-15T22:32:33.900Z,45.60
2019-03-15T22:37:40.011Z,46.00
2019-03-15T22:42:57.880Z,46.00
2019-03-15T22:48:06.053Z,46.50
2019-03-15T22:53:12.490Z,46.60
2019-03-15T22:58:18.772Z,46.50
2019-03-15T23:03:24.880Z,46.60
2019-03-15T23:08:30.612Z,46.50
2019-03-15T23:13:36.642Z,46.70
2019-03-15T23:18:43.520Z,46.70
2019-03-15T23:23:49.111Z,46.80
2019-03-15T23:28:55.092Z,46.70
2019-03-15T23:34:02.442Z,46.60
2019-03-15T23:39:09.592Z,46.50
2019-03-15T23:44:15.275Z,46.30
2019-03-15T23:49:21.110Z,46.20
2019-03-15T23:54:27.299Z,46.40
2019-03-15T23:59:33.184Z,46.60
